Time;durP1;ratioP1;P1;durP2;ratioP2;P2;SDS_P1;SDS_P2;PMS_P1;PMS_P2;Temp;Humidity;BMP_temperature;BMP_pressure;BME280_temperature;BME280_humidity;BME280_pressure;Samples;Min_cycle;Max_cycle;Signal;HPM_P1;HPM_P2
2022/05/10 00:01:15;;;;;;;3.67;2.90;;;16.40;1.00;;;;;;5107112;28;20471;-62
2022/05/10 00:03:41;;;;;;;2.70;2.50;;;16.40;1.00;;;;;;5106597;28;20819;-63
2022/05/10 00:09:31;;;;;;;3.03;2.73;;;16.40;1.00;;;;;;5109201;28;20415;-61
2022/05/10 00:11:59;;;;;;;5.73;2.60;;;16.40;1.00;;;;;;5105496;28;21009;-61
2022/05/10 00:14:27;;;;;;;2.80;2.33;;;16.40;1.00;;;;;;5112613;28;20785;-62
2022/05/10 00:16:55;;;;;;;3.00;2.80;;;16.40;99.90;;;;;;5114545;28;20483;-62
2022/05/10 00:19:27;;;;;;;3.23;2.93;;;16.40;99.90;;;;;;5113430;28;20449;-61
2022/05/10 00:21:55;;;;;;;2.80;2.40;;;16.40;99.90;;;;;;5106670;28;20880;-62
2022/05/10 00:24:22;;;;;;;2.40;2.13;;;16.30;99.90;;;;;;5114986;28;21046;-61
2022/05/10 00:26:50;;;;;;;3.27;3.00;;;16.30;99.90;;;;;;5115594;28;20903;-62
2022/05/10 00:29:17;;;;;;;2.83;2.50;;;16.30;99.90;;;;;;5110171;28;20457;-62
2022/05/10 00:31:44;;;;;;;3.67;3.20;;;16.30;1.00;;;;;;5112189;28;20475;-61
2022/05/10 00:34:16;;;;;;;4.40;2.73;;;16.20;1.00;;;;;;5105429;28;20770;-62
2022/05/10 00:36:43;;;;;;;2.27;2.07;;;16.20;1.00;;;;;;5114522;28;20522;-62
2022/05/10 00:39:11;;;;;;;2.67;2.43;;;16.20;1.00;;;;;;5103816;28;20470;-62
2022/05/10 00:41:55;;;;;;;4.13;2.93;;;16.20;1.00;;;;;;5113013;28;20776;-62
2022/05/10 00:44:26;;;;;;;3.33;3.03;;;16.20;1.00;;;;;;5113252;28;20950;-61
2022/05/10 00:47:05;;;;;;;2.50;2.30;;;16.20;21.10;;;;;;5116205;28;20465;-62
2022/05/10 00:49:37;;;;;;;3.93;2.90;;;16.20;1.00;;;;;;5111535;28;21043;-62
2022/05/10 00:52:09;;;;;;;3.03;2.83;;;16.20;1.00;;;;;;5116549;28;20467;-61
2022/05/10 00:54:42;;;;;;;3.57;2.60;;;16.20;1.00;;;;;;5117137;28;20488;-61
2022/05/10 00:57:22;;;;;;;4.07;3.47;;;16.20;99.90;;;;;;5130086;27;20990;-61
2022/05/10 00:59:57;;;;;;;3.40;2.20;;;16.20;1.00;;;;;;5136563;27;20750;-62
2022/05/10 01:02:39;;;;;;;2.53;2.33;;;16.10;91.00;;;;;;5140129;27;20533;-62
2022/05/10 01:05:11;;;;;;;4.00;3.10;;;16.10;99.90;;;;;;5136775;27;20835;-62
2022/05/10 01:07:49;;;;;;;4.30;2.53;;;16.10;1.00;;;;;;5137084;27;20550;-62
2022/05/10 01:10:20;;;;;;;2.27;2.07;;;16.00;1.00;;;;;;5137973;27;20467;-61
2022/05/10 01:12:53;;;;;;;3.73;3.03;;;16.00;99.90;;;;;;5136099;27;20502;-61
2022/05/10 01:15:23;;;;;;;2.83;2.63;;;16.00;1.00;;;;;;5136940;27;20456;-61
2022/05/10 01:17:54;;;;;;;4.10;3.80;;;16.00;1.00;;;;;;5136943;27;20483;-61
2022/05/10 01:21:08;;;;;;;4.43;2.90;;;16.00;1.00;;;;;;5138773;27;20554;-61
2022/05/10 01:24:03;;;;;;;4.37;3.60;;;16.00;91.70;;;;;;5137689;27;20487;-62
2022/05/10 01:26:41;;;;;;;3.77;2.73;;;15.90;99.90;;;;;;5134504;27;20547;-62
2022/05/10 01:29:15;;;;;;;3.90;3.03;;;15.90;14.50;;;;;;5137574;27;20459;-62
2022/05/10 01:35:07;;;;;;;2.40;2.13;;;16.00;99.90;;;;;;5135282;27;20475;-61
2022/05/10 01:37:38;;;;;;;3.60;3.20;;;16.00;1.00;;;;;;5137283;27;20486;-62
2022/05/10 01:40:13;;;;;;;2.63;2.40;;;16.00;99.90;;;;;;5138344;27;20755;-61
2022/05/10 01:42:45;;;;;;;2.90;2.13;;;16.00;1.00;;;;;;5132245;27;20963;-61
2022/05/10 01:45:21;;;;;;;3.43;2.80;;;16.00;99.90;;;;;;5139154;27;20479;-62
2022/05/10 01:47:54;;;;;;;1.87;1.60;;;16.00;1.00;;;;;;5137199;27;20459;-61
2022/05/10 01:50:28;;;;;;;2.73;2.23;;;16.00;1.00;;;;;;5137134;27;20554;-62
2022/05/10 01:53:18;;;;;;;3.07;1.60;;;16.00;1.00;;;;;;5136685;27;20540;-62
2022/05/10 01:55:48;;;;;;;3.30;3.00;;;16.10;1.00;;;;;;5137078;27;20466;-61
2022/05/10 01:58:17;;;;;;;3.47;2.50;;;16.10;1.00;;;;;;5135351;27;20479;-61
2022/05/10 02:00:49;;;;;;;2.90;2.23;;;16.20;99.90;;;;;;5136068;27;20463;-62
2022/05/10 02:06:29;;;;;;;2.93;2.70;;;16.10;99.90;;;;;;5136493;27;20484;-61
2022/05/10 02:09:02;;;;;;;4.37;3.40;;;16.10;1.00;;;;;;5129462;27;20462;-61
2022/05/10 02:11:29;;;;;;;2.50;2.17;;;16.10;1.00;;;;;;5132493;27;20459;-61
2022/05/10 02:14:02;;;;;;;3.80;3.50;;;16.10;1.00;;;;;;5138372;27;20447;-61
2022/05/10 02:16:40;;;;;;;3.60;2.50;;;16.10;1.00;;;;;;5137510;27;20466;-61
2022/05/10 02:19:11;;;;;;;3.10;2.80;;;16.00;1.00;;;;;;5133792;27;20918;-61
2022/05/10 02:21:44;;;;;;;3.30;2.93;;;16.00;1.00;;;;;;5135464;27;20464;-62
2022/05/10 02:24:16;;;;;;;4.10;3.70;;;16.00;1.00;;;;;;5135181;27;20834;-61
2022/05/10 02:26:49;;;;;;;4.03;3.17;;;15.90;28.40;;;;;;5133404;27;20464;-62
2022/05/10 02:29:23;;;;;;;2.47;1.80;;;15.90;99.90;;;;;;5134201;27;20466;-61
2022/05/10 02:34:45;;;;;;;2.43;2.20;;;15.80;99.90;;;;;;5129889;27;20456;-64
2022/05/10 02:37:12;;;;;;;4.27;2.67;;;15.70;1.00;;;;;;5131498;27;20460;-63
2022/05/10 02:39:39;;;;;;;2.83;2.27;;;15.70;1.00;;;;;;5135617;27;20464;-64
2022/05/10 02:42:09;;;;;;;4.13;3.10;;;15.60;1.00;;;;;;5136497;27;20464;-64
2022/05/10 02:44:50;;;;;;;4.07;2.97;;;15.60;99.90;;;;;;5136261;27;20898;-63
2022/05/10 02:47:29;;;;;;;2.60;2.33;;;15.50;99.90;;;;;;5133167;27;20458;-63
2022/05/10 02:49:56;;;;;;;3.47;2.93;;;15.50;1.00;;;;;;5134031;27;20459;-63
2022/05/10 02:52:23;;;;;;;3.27;2.67;;;15.50;1.00;;;;;;5136002;27;22092;-63
2022/05/10 02:55:17;;;;;;;5.00;3.20;;;15.50;1.00;;;;;;5131407;27;20551;-63
2022/05/10 02:57:46;;;;;;;3.53;3.20;;;15.50;1.00;;;;;;5131425;27;20495;-62
2022/05/10 03:00:14;;;;;;;2.83;2.50;;;15.50;1.00;;;;;;5135922;27;20460;-62
2022/05/10 03:02:46;;;;;;;4.10;3.80;;;15.50;1.00;;;;;;5134179;27;20462;-62
2022/05/10 03:08:37;;;;;;;2.93;2.70;;;15.40;1.00;;;;;;5013336;28;20927;-62
2022/05/10 03:11:04;;;;;;;2.87;2.37;;;15.30;99.90;;;;;;5038706;27;20463;-62
2022/05/10 03:13:30;;;;;;;2.90;2.60;;;15.30;1.00;;;;;;5135261;27;20459;-62
2022/05/10 03:15:57;;;;;;;3.20;2.43;;;15.20;99.90;;;;;;5135179;27;20459;-62
2022/05/10 03:21:47;;;;;;;4.33;3.40;;;15.30;1.00;;;;;;5127749;27;20775;-61
2022/05/10 03:24:15;;;;;;;2.80;2.57;;;15.40;1.00;;;;;;5135882;27;20530;-62
2022/05/10 03:26:46;;;;;;;3.20;2.70;;;15.40;1.00;;;;;;5135519;27;20463;-63
2022/05/10 03:29:13;;;;;;;3.93;3.50;;;15.40;99.90;;;;;;5136599;27;20738;-62
2022/05/10 03:31:40;;;;;;;3.17;2.83;;;15.40;99.90;;;;;;5132512;27;20550;-62
2022/05/10 03:36:52;;;;;;;4.57;3.67;;;15.40;82.70;;;;;;5135150;27;20450;-63
2022/05/10 03:39:19;;;;;;;4.20;3.80;;;15.30;99.90;;;;;;5133565;27;20477;-63
2022/05/10 03:41:46;;;;;;;3.97;3.67;;;15.20;1.00;;;;;;5130685;28;20459;-63
2022/05/10 03:44:13;;;;;;;4.47;3.83;;;15.20;8.40;;;;;;5133325;28;20546;-63
2022/05/10 03:46:40;;;;;;;4.73;4.33;;;15.20;35.00;;;;;;5136565;28;20456;-63
2022/05/10 03:49:07;;;;;;;3.80;3.37;;;15.20;1.00;;;;;;5131601;28;20444;-62
2022/05/10 03:51:34;;;;;;;5.10;3.80;;;15.30;1.00;;;;;;5135843;28;20477;-63
2022/05/10 03:54:02;;;;;;;4.27;3.50;;;15.20;1.00;;;;;;5129689;28;20460;-63
2022/05/10 03:56:29;;;;;;;4.23;3.83;;;15.10;15.70;;;;;;5132662;28;20515;-63
2022/05/10 03:58:56;;;;;;;5.20;3.70;;;15.00;99.90;;;;;;5128360;28;20483;-63
2022/05/10 04:01:24;;;;;;;3.47;3.23;;;14.80;99.90;;;;;;5135899;28;20472;-63
2022/05/10 04:03:51;;;;;;;3.90;3.13;;;14.90;1.00;;;;;;5134595;28;20538;-63
2022/05/10 04:06:18;;;;;;;4.30;3.90;;;14.80;1.00;;;;;;5135264;28;20455;-62
2022/05/10 04:08:46;;;;;;;3.80;3.03;;;14.90;99.90;;;;;;5135635;28;20455;-63
2022/05/10 04:11:15;;;;;;;5.17;4.67;;;14.90;99.90;;;;;;5127972;28;20455;-63
2022/05/10 04:13:43;;;;;;;5.13;4.07;;;14.90;99.90;;;;;;5124897;28;20456;-63
2022/05/10 04:16:11;;;;;;;2.10;1.90;;;14.80;1.00;;;;;;5129416;28;20902;-64
2022/05/10 04:18:37;;;;;;;4.00;3.63;;;14.80;1.00;;;;;;5134003;28;20831;-62
2022/05/10 04:21:04;;;;;;;3.27;2.30;;;14.90;1.00;;;;;;5136180;27;20460;-63
2022/05/10 04:23:32;;;;;;;3.67;3.27;;;15.00;99.90;;;;;;5136979;27;20464;-63
2022/05/10 04:26:03;;;;;;;4.70;4.30;;;15.10;99.90;;;;;;5135562;27;20462;-63
2022/05/10 04:28:32;;;;;;;5.40;3.40;;;15.20;1.00;;;;;;5133660;27;20457;-63
2022/05/10 04:30:58;;;;;;;3.30;3.00;;;15.20;1.00;;;;;;5128934;27;20546;-60
2022/05/10 04:33:25;;;;;;;3.80;3.47;;;15.10;56.30;;;;;;5137497;27;20744;-62
2022/05/10 04:35:52;;;;;;;4.40;3.37;;;15.10;99.90;;;;;;5132407;27;20466;-61
2022/05/10 04:38:19;;;;;;;3.70;2.67;;;15.10;99.90;;;;;;5137455;27;20489;-61
2022/05/10 04:43:32;;;;;;;4.30;3.90;;;15.10;99.90;;;;;;5129541;27;20442;-59
2022/05/10 04:45:59;;;;;;;3.83;3.43;;;15.00;99.90;;;;;;5135921;27;20457;-62
2022/05/10 04:48:26;;;;;;;4.77;4.30;;;15.00;99.90;;;;;;5138406;27;20462;-59
2022/05/10 04:50:53;;;;;;;5.27;4.60;;;15.00;99.90;;;;;;5129018;27;20554;-59
2022/05/10 04:54:16;;;;;;;4.43;4.00;;;15.00;1.00;;;;;;5133711;27;20904;-59
2022/05/10 04:56:43;;;;;;;4.70;3.97;;;15.00;99.90;;;;;;5130720;27;20859;-59
2022/05/10 04:59:11;;;;;;;3.60;3.30;;;14.90;1.00;;;;;;5126371;27;20483;-61
2022/05/10 05:01:38;;;;;;;4.90;4.03;;;14.90;1.00;;;;;;5131951;27;20463;-59
2022/05/10 05:04:05;;;;;;;7.60;4.43;;;14.90;1.00;;;;;;5134981;27;20559;-60
2022/05/10 05:06:33;;;;;;;3.50;3.20;;;15.00;1.00;;;;;;5133222;27;21057;-60
2022/05/10 05:09:00;;;;;;;6.97;3.77;;;15.00;1.00;;;;;;5127002;27;20532;-60
2022/05/10 05:11:27;;;;;;;5.20;4.03;;;15.10;99.90;;;;;;5125423;27;20891;-61
2022/05/10 05:13:54;;;;;;;4.33;3.43;;;15.20;99.90;;;;;;5128618;27;20459;-60
2022/05/10 05:16:23;;;;;;;5.50;4.67;;;15.30;99.90;;;;;;5130682;27;20467;-60
2022/05/10 05:18:49;;;;;;;3.87;3.13;;;15.40;99.90;;;;;;5129122;27;21162;-60
2022/05/10 05:21:16;;;;;;;4.97;4.47;;;15.40;33.70;;;;;;5135046;27;20562;-61
2022/05/10 05:23:44;;;;;;;4.90;3.67;;;15.40;20.30;;;;;;5126920;27;20455;-60
2022/05/10 05:26:11;;;;;;;2.83;2.33;;;15.40;1.00;;;;;;5129585;27;20463;-60
2022/05/10 05:28:38;;;;;;;3.57;2.70;;;15.50;1.00;;;;;;5130464;27;20512;-61
2022/05/10 05:31:06;;;;;;;3.30;2.60;;;15.70;99.90;;;;;;5130054;27;20462;-60
2022/05/10 05:33:34;;;;;;;3.80;2.97;;;15.80;1.00;;;;;;5131087;27;20463;-60
2022/05/10 05:36:01;;;;;;;4.27;3.40;;;15.90;1.00;;;;;;5123805;27;20487;-60
2022/05/10 05:38:28;;;;;;;5.93;3.43;;;16.00;1.00;;;;;;5133070;27;20480;-60
2022/05/10 05:40:55;;;;;;;3.90;3.50;;;16.10;1.00;;;;;;5133658;27;20758;-60
2022/05/10 05:43:23;;;;;;;4.87;3.73;;;16.10;99.90;;;;;;5134155;27;20454;-61
2022/05/10 05:45:51;;;;;;;4.30;3.60;;;16.20;1.00;;;;;;5128775;27;20547;-60
2022/05/10 05:48:18;;;;;;;5.43;3.93;;;16.20;1.00;;;;;;5129316;27;20870;-60
2022/05/10 05:50:46;;;;;;;4.07;3.70;;;16.30;99.90;;;;;;5125536;27;20443;-60
2022/05/10 05:53:13;;;;;;;6.37;3.20;;;16.30;18.70;;;;;;5132655;27;20466;-60
2022/05/10 05:55:42;;;;;;;4.37;3.30;;;16.40;1.00;;;;;;5130934;27;20769;-60
2022/05/10 05:58:10;;;;;;;3.80;2.77;;;16.40;1.00;;;;;;5125188;27;20997;-60
2022/05/10 06:00:38;;;;;;;3.80;3.23;;;16.50;1.00;;;;;;5118858;27;20509;-60
2022/05/10 06:03:05;;;;;;;3.00;2.70;;;16.60;99.90;;;;;;5125503;27;20471;-59
2022/05/10 06:05:32;;;;;;;3.07;2.83;;;16.60;99.90;;;;;;5131506;27;20916;-60
2022/05/10 06:08:01;;;;;;;5.53;4.27;;;16.60;65.70;;;;;;5130860;27;20452;-60
2022/05/10 06:10:27;;;;;;;3.40;3.10;;;16.70;5.30;;;;;;5125736;27;20455;-60
2022/05/10 06:12:54;;;;;;;4.37;3.40;;;16.70;1.00;;;;;;5129064;27;20913;-60
2022/05/10 06:15:21;;;;;;;3.30;3.00;;;16.80;1.00;;;;;;5130822;27;20455;-62
2022/05/10 06:17:49;;;;;;;5.80;3.60;;;16.90;1.00;;;;;;5129783;27;20452;-60
2022/05/10 06:20:19;;;;;;;5.10;3.33;;;16.90;1.00;;;;;;5131301;27;20533;-61
2022/05/10 06:22:46;;;;;;;3.63;2.93;;;16.90;1.00;;;;;;5129900;27;20497;-60
2022/05/10 06:25:17;;;;;;;3.10;2.50;;;17.10;1.00;;;;;;5130368;27;21115;-60
2022/05/10 06:27:44;;;;;;;3.77;3.10;;;17.20;99.90;;;;;;5127978;27;20452;-60
2022/05/10 06:30:13;;;;;;;3.93;3.10;;;17.20;99.90;;;;;;5132035;27;20451;-61
2022/05/10 06:32:40;;;;;;;9.30;4.00;;;17.30;99.90;;;;;;5127333;27;20447;-60
2022/05/10 06:35:08;;;;;;;3.63;2.73;;;17.30;99.90;;;;;;5126903;27;20456;-60
2022/05/10 06:40:21;;;;;;;3.50;3.20;;;17.30;99.90;;;;;;5123645;27;20541;-60
2022/05/10 06:42:48;;;;;;;3.90;3.30;;;17.40;99.90;;;;;;5124186;27;20456;-61
2022/05/10 06:45:17;;;;;;;4.27;3.77;;;17.50;99.90;;;;;;5129041;27;20456;-61
2022/05/10 06:47:46;;;;;;;3.47;2.83;;;17.60;99.90;;;;;;5130198;27;20814;-62
2022/05/10 06:50:16;;;;;;;4.00;3.60;;;17.60;99.90;;;;;;5120977;27;20455;-62
2022/05/10 06:52:43;;;;;;;4.43;3.50;;;17.70;99.90;;;;;;5123365;27;20460;-62
2022/05/10 06:55:11;;;;;;;3.83;2.87;;;17.80;99.90;;;;;;5131082;27;20916;-62
2022/05/10 06:57:39;;;;;;;2.17;1.90;;;17.90;99.90;;;;;;5125222;27;20483;-61
2022/05/10 07:00:08;;;;;;;4.70;3.10;;;18.00;99.90;;;;;;5125822;27;20480;-63
2022/05/10 07:02:35;;;;;;;2.83;2.60;;;18.20;99.90;;;;;;5129466;27;20550;-62
2022/05/10 07:05:02;;;;;;;3.20;2.90;;;18.30;11.50;;;;;;5128273;27;20459;-62
2022/05/10 07:07:29;;;;;;;3.00;2.70;;;18.40;1.00;;;;;;5118823;27;20551;-62
2022/05/10 07:09:56;;;;;;;3.33;2.73;;;18.50;1.00;;;;;;5127483;27;20463;-62
2022/05/10 07:12:22;;;;;;;2.53;2.33;;;18.60;1.00;;;;;;5133257;27;20458;-62
2022/05/10 07:14:51;;;;;;;5.03;3.33;;;18.70;1.00;;;;;;5122735;27;20457;-61
2022/05/10 07:17:17;;;;;;;4.60;2.67;;;18.70;1.00;;;;;;5124275;27;20563;-59
2022/05/10 07:19:44;;;;;;;3.50;3.20;;;18.80;1.00;;;;;;5123318;27;20480;-60
2022/05/10 07:22:11;;;;;;;4.67;2.30;;;18.90;1.00;;;;;;5128472;27;20554;-63
2022/05/10 07:24:38;;;;;;;2.40;2.20;;;19.10;1.00;;;;;;5127177;27;20449;-59
2022/05/10 07:27:05;;;;;;;2.55;2.35;;;19.20;99.90;;;;;;5121280;27;20562;-60
2022/05/10 07:29:32;;;;;;;2.90;2.50;;;19.40;99.90;;;;;;5119366;27;20278;-60
2022/05/10 07:32:01;;;;;;;2.50;1.70;;;19.50;99.90;;;;;;5125622;27;20459;-61
2022/05/10 07:34:28;;;;;;;3.30;2.93;;;19.60;99.90;;;;;;5121902;27;20469;-61
2022/05/10 07:36:55;;;;;;;2.20;2.00;;;19.60;99.90;;;;;;5119980;27;20453;-63
2022/05/10 07:39:23;;;;;;;2.27;1.80;;;19.70;99.90;;;;;;5129577;27;20581;-61
2022/05/10 07:41:53;;;;;;;1.83;1.63;;;19.90;99.90;;;;;;5133290;27;20475;-61
2022/05/10 07:44:22;;;;;;;3.13;1.87;;;20.00;59.20;;;;;;5126962;27;20487;-65
2022/05/10 07:46:49;;;;;;;5.93;1.87;;;20.00;32.70;;;;;;5132931;28;20467;-63
2022/05/10 07:49:17;;;;;;;3.53;2.27;;;20.10;29.80;;;;;;5132773;28;20458;-63
2022/05/10 07:51:44;;;;;;;2.87;2.40;;;20.30;1.00;;;;;;5130488;28;20456;-62
2022/05/10 07:54:10;;;;;;;2.80;1.77;;;20.40;1.00;;;;;;5126623;28;20451;-63
2022/05/10 07:56:38;;;;;;;2.60;2.37;;;20.60;1.00;;;;;;5129412;27;20483;-63
2022/05/10 07:59:05;;;;;;;2.23;1.47;;;20.70;1.00;;;;;;5127633;27;20487;-63
2022/05/10 08:01:32;;;;;;;2.93;1.63;;;20.70;1.00;;;;;;5132870;27;21076;-63
2022/05/10 08:03:59;;;;;;;2.50;2.00;;;20.70;1.00;;;;;;5129365;27;20466;-61
2022/05/10 08:06:28;;;;;;;2.27;2.00;;;20.70;1.00;;;;;;5127050;27;20529;-61
2022/05/10 08:08:55;;;;;;;1.70;1.30;;;20.70;1.00;;;;;;5124845;27;20448;-62
2022/05/10 08:11:22;;;;;;;2.77;1.53;;;20.80;1.00;;;;;;5129269;27;20452;-62
2022/05/10 08:13:49;;;;;;;1.90;1.60;;;20.90;1.00;;;;;;5133356;27;20455;-62
2022/05/10 08:16:17;;;;;;;2.17;1.60;;;21.00;1.00;;;;;;5121429;27;20551;-62
2022/05/10 08:18:45;;;;;;;1.77;1.53;;;21.10;1.00;;;;;;5125579;27;20538;-62
2022/05/10 08:21:14;;;;;;;2.37;2.17;;;21.20;1.00;;;;;;5132882;27;20444;-62
2022/05/10 08:23:42;;;;;;;5.60;3.50;;;21.30;1.00;;;;;;5123011;27;20806;-60
2022/05/10 08:26:09;;;;;;;31.80;19.73;;;21.40;1.00;;;;;;5132396;27;20467;-61
2022/05/10 08:28:37;;;;;;;3.67;3.23;;;21.40;1.00;;;;;;5125853;27;20467;-61
2022/05/10 08:31:06;;;;;;;8.97;8.07;;;21.40;1.00;;;;;;5126015;27;20466;-61
2022/05/10 08:33:35;;;;;;;2.33;1.70;;;21.60;1.00;;;;;;5122382;27;20499;-60
2022/05/10 08:36:03;;;;;;;1.60;1.40;;;21.70;1.00;;;;;;5131026;27;20455;-61
2022/05/10 08:38:31;;;;;;;5.13;1.70;;;21.60;1.00;;;;;;5130560;27;20902;-60
2022/05/10 08:41:03;;;;;;;2.00;1.80;;;21.60;1.00;;;;;;5130083;27;20941;-60
2022/05/10 08:43:37;;;;;;;2.63;1.83;;;21.70;1.00;;;;;;5133443;27;20448;-60
2022/05/10 08:46:04;;;;;;;2.83;1.77;;;21.80;1.00;;;;;;5130922;27;20447;-61
2022/05/10 08:48:32;;;;;;;2.60;1.73;;;22.00;1.00;;;;;;5131485;27;20464;-60
2022/05/10 08:51:00;;;;;;;3.50;1.50;;;22.10;1.00;;;;;;5122473;27;20879;-60
2022/05/10 08:53:28;;;;;;;3.87;2.17;;;22.20;1.00;;;;;;5128152;27;20464;-61
2022/05/10 08:56:01;;;;;;;1.70;1.60;;;22.20;1.00;;;;;;5132422;27;20882;-61
2022/05/10 08:58:38;;;;;;;1.90;1.70;;;22.20;1.00;;;;;;5134754;27;20467;-61
2022/05/10 09:01:09;;;;;;;1.70;1.40;;;22.30;1.00;;;;;;5135351;27;20471;-61
2022/05/10 09:03:42;;;;;;;3.00;1.50;;;22.50;1.00;;;;;;5133628;27;20466;-61
2022/05/10 09:06:20;;;;;;;3.50;3.20;;;22.80;1.00;;;;;;5134012;27;20555;-61
2022/05/10 09:09:01;;;;;;;1.70;1.60;;;23.00;1.00;;;;;;5129468;27;20520;-61
2022/05/10 09:11:36;;;;;;;1.73;1.50;;;23.10;1.00;;;;;;5130441;27;20499;-61
2022/05/10 09:14:05;;;;;;;1.50;1.13;;;23.40;1.00;;;;;;5133197;27;20542;-62
2022/05/10 09:16:32;;;;;;;1.70;1.50;;;23.60;1.00;;;;;;5134122;27;20452;-61
2022/05/10 09:18:59;;;;;;;1.50;1.30;;;23.70;1.00;;;;;;5133287;27;20555;-61
2022/05/10 09:21:28;;;;;;;1.40;1.30;;;23.70;1.00;;;;;;5131748;27;20466;-61
2022/05/10 09:24:09;;;;;;;1.43;1.27;;;23.80;1.00;;;;;;5135048;27;20458;-60
2022/05/10 09:26:39;;;;;;;1.97;1.47;;;23.90;1.00;;;;;;5130433;27;20983;-62
2022/05/10 09:29:13;;;;;;;1.60;1.30;;;24.00;1.00;;;;;;5114886;27;20461;-62
2022/05/10 09:37:17;;;;;;;1.63;1.53;;;24.50;1.00;;;;;;5129826;27;21092;-61
2022/05/10 09:39:49;;;;;;;2.63;1.77;;;24.50;1.00;;;;;;5129022;27;20479;-58
2022/05/10 09:42:29;;;;;;;1.93;1.83;;;24.40;1.00;;;;;;5129108;27;20460;-59
2022/05/10 09:45:04;;;;;;;2.03;1.30;;;24.40;1.00;;;;;;5130243;27;20447;-58
2022/05/10 09:47:32;;;;;;;2.80;2.00;;;24.20;1.00;;;;;;5131126;27;20558;-58
2022/05/10 09:50:17;;;;;;;2.47;1.20;;;24.20;1.00;;;;;;5123559;27;20889;-58
2022/05/10 09:52:44;;;;;;;2.10;1.40;;;24.30;1.00;;;;;;5127839;27;20795;-57
2022/05/10 09:55:27;;;;;;;2.00;1.20;;;24.50;1.00;;;;;;5131305;27;20559;-58
2022/05/10 09:57:56;;;;;;;1.70;1.60;;;24.60;1.00;;;;;;5112351;27;21028;-58
2022/05/10 10:00:40;;;;;;;1.40;1.20;;;24.80;1.00;;;;;;5103456;27;21044;-58
2022/05/10 10:03:07;;;;;;;1.83;1.73;;;25.00;1.00;;;;;;5105874;28;20452;-59
2022/05/10 10:05:36;;;;;;;1.63;1.53;;;25.20;1.00;;;;;;5111119;28;20863;-59
2022/05/10 10:08:03;;;;;;;1.90;1.30;;;25.30;1.00;;;;;;5107863;27;20459;-59
2022/05/10 10:10:31;;;;;;;2.43;1.13;;;25.50;1.00;;;;;;5109377;28;20463;-58
2022/05/10 10:13:11;;;;;;;1.40;1.17;;;25.30;1.00;;;;;;5112699;27;20912;-59
2022/05/10 10:15:43;;;;;;;2.00;1.30;;;25.50;1.00;;;;;;5110740;28;20447;-58
2022/05/10 10:18:12;;;;;;;1.70;1.00;;;25.40;1.00;;;;;;5108747;28;20563;-59
2022/05/10 10:20:47;;;;;;;1.33;1.00;;;25.80;1.00;;;;;;5107988;28;20484;-59
2022/05/10 10:23:23;;;;;;;1.93;1.03;;;26.00;1.00;;;;;;5110318;28;20918;-58
2022/05/10 10:25:51;;;;;;;1.20;1.10;;;26.00;1.00;;;;;;5110769;28;20441;-59
2022/05/10 10:28:25;;;;;;;1.67;1.10;;;26.30;1.00;;;;;;5105516;28;20472;-58
2022/05/10 10:30:55;;;;;;;3.80;3.07;;;26.30;1.00;;;;;;5103373;28;20494;-58
2022/05/10 10:33:34;;;;;;;1.40;1.20;;;26.90;1.00;;;;;;5108324;28;20472;-59
2022/05/10 10:36:06;;;;;;;1.40;1.20;;;27.00;1.00;;;;;;5097399;28;20453;-64
2022/05/10 10:38:44;;;;;;;1.43;1.10;;;26.90;1.00;;;;;;5102559;28;20552;-65
2022/05/10 10:41:14;;;;;;;1.60;1.10;;;27.30;1.00;;;;;;5107481;28;20734;-65
2022/05/10 10:43:48;;;;;;;1.30;1.10;;;27.70;1.00;;;;;;5112288;28;20504;-64
2022/05/10 10:46:24;;;;;;;2.50;1.73;;;28.20;1.00;;;;;;5110674;28;20977;-62
2022/05/10 10:48:56;;;;;;;1.27;1.00;;;28.00;1.00;;;;;;5108608;28;20456;-66
2022/05/10 10:51:28;;;;;;;1.40;1.23;;;27.60;1.00;;;;;;5106314;28;20457;-66
2022/05/10 10:53:55;;;;;;;4.13;2.53;;;27.20;1.00;;;;;;5110930;28;20926;-65
2022/05/10 10:56:37;;;;;;;2.20;1.87;;;26.80;1.00;;;;;;5111752;28;20483;-64
2022/05/10 10:59:28;;;;;;;2.80;1.00;;;26.70;1.00;;;;;;5113211;28;20465;-65
2022/05/10 11:02:05;;;;;;;1.23;1.00;;;26.90;1.00;;;;;;5111479;28;20464;-66
2022/05/10 11:04:47;;;;;;;1.20;1.00;;;26.90;1.00;;;;;;5113253;28;20781;-65
2022/05/10 11:07:21;;;;;;;1.10;1.00;;;26.70;1.00;;;;;;5111206;28;20444;-65
2022/05/10 11:09:51;;;;;;;1.37;1.10;;;26.80;1.00;;;;;;5112071;28;20537;-66
2022/05/10 11:12:38;;;;;;;1.63;1.07;;;27.10;1.00;;;;;;5108867;28;20457;-65
2022/05/10 11:15:19;;;;;;;1.13;1.03;;;27.50;1.00;;;;;;5112231;28;20436;-65
2022/05/10 11:18:00;;;;;;;1.10;1.00;;;27.90;1.00;;;;;;5110750;28;20450;-66
2022/05/10 11:20:38;;;;;;;1.37;1.00;;;28.40;1.00;;;;;;5102259;28;20486;-65
2022/05/10 11:23:07;;;;;;;4.17;1.03;;;28.50;1.00;;;;;;5105968;28;20455;-64
2022/05/10 11:25:51;;;;;;;1.10;0.90;;;28.80;1.00;;;;;;5107264;28;21099;-65
2022/05/10 11:28:37;;;;;;;1.53;1.00;;;29.40;1.00;;;;;;5105790;28;20448;-65
2022/05/10 11:31:11;;;;;;;1.30;1.00;;;30.00;1.00;;;;;;5104882;28;20457;-65
2022/05/10 11:33:49;;;;;;;1.70;1.10;;;29.40;1.00;;;;;;5113317;28;20835;-67
2022/05/10 11:36:34;;;;;;;1.07;0.97;;;28.60;1.00;;;;;;5113397;28;20526;-66
2022/05/10 11:39:33;;;;;;;1.17;0.90;;;28.20;1.00;;;;;;5111594;28;20551;-65
2022/05/10 11:42:16;;;;;;;3.20;1.00;;;27.80;1.00;;;;;;5068848;28;20580;-64
2022/05/10 11:45:15;;;;;;;1.07;0.97;;;27.20;1.00;;;;;;5103151;28;20464;-64
2022/05/10 11:48:03;;;;;;;2.47;1.00;;;27.10;1.00;;;;;;5110616;28;20461;-65
2022/05/10 11:54:09;;;;;;;1.10;0.80;;;27.20;1.00;;;;;;5111136;28;20472;-65
2022/05/10 11:56:40;;;;;;;1.07;0.90;;;26.90;1.00;;;;;;5113411;28;20567;-66
2022/05/10 11:59:13;;;;;;;2.57;1.80;;;27.00;1.00;;;;;;5109838;28;20550;-64
2022/05/10 12:01:43;;;;;;;2.30;0.93;;;27.10;1.00;;;;;;5105943;28;20510;-66
2022/05/10 12:04:35;;;;;;;1.27;1.00;;;27.00;1.00;;;;;;5110686;28;20460;-66
2022/05/10 12:07:28;;;;;;;1.30;1.00;;;27.20;1.00;;;;;;5111722;28;20433;-66
2022/05/10 12:10:07;;;;;;;3.40;1.07;;;27.50;1.00;;;;;;5107982;28;20465;-68
2022/05/10 12:13:00;;;;;;;1.20;1.00;;;27.20;1.00;;;;;;5112186;28;20456;-66
2022/05/10 12:21:23;;;;;;;1.10;0.90;;;26.20;1.00;;;;;;5110586;28;21176;-66
2022/05/10 12:24:05;;;;;;;1.50;1.20;;;26.10;1.00;;;;;;5100137;28;20456;-66
2022/05/10 12:26:40;;;;;;;1.20;0.90;;;26.20;1.00;;;;;;5110219;28;20452;-66
2022/05/10 12:29:28;;;;;;;1.10;0.90;;;26.20;1.00;;;;;;5107051;28;20559;-66
2022/05/10 12:31:58;;;;;;;1.20;0.97;;;26.20;1.00;;;;;;5096518;28;20935;-67
2022/05/10 12:34:51;;;;;;;1.20;0.93;;;26.20;1.00;;;;;;5109945;28;20472;-66
2022/05/10 12:37:50;;;;;;;1.00;0.83;;;26.10;1.00;;;;;;5091721;28;20464;-66
2022/05/10 12:40:54;;;;;;;1.47;1.00;;;26.00;1.00;;;;;;5108271;28;20583;-66
2022/05/10 12:43:50;;;;;;;1.50;0.93;;;26.10;1.00;;;;;;5113272;28;20487;-66
2022/05/10 12:46:27;;;;;;;0.90;0.80;;;26.30;1.00;;;;;;5107922;28;20464;-66
2022/05/10 12:49:08;;;;;;;1.00;0.90;;;26.50;1.00;;;;;;5114172;28;20871;-65
2022/05/10 12:51:44;;;;;;;1.17;0.90;;;26.70;1.00;;;;;;5116761;28;20446;-65
2022/05/10 12:54:19;;;;;;;1.10;0.90;;;26.90;1.00;;;;;;5115051;28;20460;-65
2022/05/10 12:57:02;;;;;;;1.20;0.93;;;27.30;1.00;;;;;;5115798;27;20963;-63
2022/05/10 12:59:33;;;;;;;1.33;0.90;;;27.40;1.00;;;;;;5122445;27;20452;-62
2022/05/10 13:02:04;;;;;;;1.00;0.83;;;27.50;1.00;;;;;;5120912;27;20475;-63
2022/05/10 13:04:40;;;;;;;1.03;0.90;;;27.60;1.00;;;;;;5133478;27;20460;-63
2022/05/10 13:07:13;;;;;;;1.20;0.90;;;28.00;1.00;;;;;;5129027;27;20836;-64
2022/05/10 13:09:43;;;;;;;2.70;1.00;;;28.30;1.00;;;;;;5133052;27;20520;-63
2022/05/10 13:12:13;;;;;;;1.30;1.10;;;28.10;1.00;;;;;;5128695;27;20488;-62
2022/05/10 13:14:43;;;;;;;1.40;0.90;;;27.90;1.00;;;;;;5124967;27;20431;-63
2022/05/10 13:17:12;;;;;;;1.53;0.97;;;27.90;1.00;;;;;;5132958;27;20456;-63
2022/05/10 13:19:43;;;;;;;1.20;0.90;;;27.80;1.00;;;;;;5125048;27;20999;-63
2022/05/10 13:22:15;;;;;;;2.00;1.17;;;27.60;1.00;;;;;;5131220;27;20479;-60
2022/05/10 13:24:46;;;;;;;1.13;1.00;;;28.00;1.00;;;;;;5132203;27;20542;-60
2022/05/10 13:27:26;;;;;;;1.30;0.93;;;28.20;1.00;;;;;;5133910;27;20448;-61
2022/05/10 13:29:55;;;;;;;1.10;0.90;;;27.60;1.00;;;;;;5133766;27;20451;-61
2022/05/10 13:32:34;;;;;;;1.30;1.00;;;27.60;1.00;;;;;;5123751;27;20460;-61
2022/05/10 13:35:12;;;;;;;1.00;0.90;;;27.90;1.00;;;;;;5129616;27;20448;-57
2022/05/10 13:37:43;;;;;;;1.90;1.30;;;28.00;1.00;;;;;;5120677;27;20464;-55
2022/05/10 13:40:24;;;;;;;1.30;0.90;;;27.80;1.00;;;;;;5125860;27;20538;-55
2022/05/10 13:42:51;;;;;;;1.20;1.00;;;27.60;1.00;;;;;;5131268;27;20452;-56
2022/05/10 13:45:23;;;;;;;1.20;1.00;;;27.40;1.00;;;;;;5129190;27;21158;-56
2022/05/10 13:47:55;;;;;;;1.73;1.10;;;27.20;1.00;;;;;;5135327;27;20487;-57
2022/05/10 13:50:30;;;;;;;1.70;1.00;;;27.10;1.00;;;;;;5137451;27;20448;-58
2022/05/10 13:53:00;;;;;;;1.57;1.10;;;27.20;1.00;;;;;;5136532;27;20487;-59
2022/05/10 13:55:29;;;;;;;8.13;5.83;;;27.30;1.00;;;;;;5130546;27;20554;-62
2022/05/10 13:58:00;;;;;;;2.03;1.10;;;27.20;1.00;;;;;;5135886;27;20490;-62
2022/05/10 14:00:33;;;;;;;1.23;0.90;;;27.20;1.00;;;;;;5136294;27;20455;-61
2022/05/10 14:03:00;;;;;;;5.93;3.83;;;27.30;1.00;;;;;;5135531;27;20448;-61